Time;durP1;ratioP1;P1;durP2;ratioP2;P2;SDS_P1;SDS_P2;PMS_P1;PMS_P2;Temp;Humidity;BMP_temperature;BMP_pressure;BME280_temperature;BME280_humidity;BME280_pressure;Samples;Min_cycle;Max_cycle;Signal;HPM_P1;HPM_P2
2021/06/02 00:00:44;;;;;;;3.60;2.53;;;15.70;69.40;;;;;;5033979;28;20124;-70
2021/06/02 00:03:13;;;;;;;4.50;3.35;;;15.60;69.20;;;;;;5034428;28;20048;-70
2021/06/02 00:05:40;;;;;;;3.53;2.50;;;15.60;69.00;;;;;;5034416;28;20041;-70
2021/06/02 00:08:09;;;;;;;5.05;2.20;;;15.50;69.50;;;;;;5034766;28;20549;-70
2021/06/02 00:14:19;;;;;;;4.05;2.10;;;15.40;69.50;;;;;;5034258;28;20048;-70
2021/06/02 00:16:45;;;;;;;3.88;2.42;;;15.30;70.50;;;;;;5034367;28;20465;-70
2021/06/02 00:19:11;;;;;;;6.32;2.28;;;15.50;69.40;;;;;;5033762;28;20038;-70
2021/06/02 00:21:37;;;;;;;2.63;2.13;;;15.40;69.90;;;;;;5033976;28;20037;-70
2021/06/02 00:24:04;;;;;;;3.35;2.22;;;15.30;70.30;;;;;;5034093;28;20393;-71
2021/06/02 00:26:34;;;;;;;3.50;2.10;;;15.30;70.80;;;;;;5034097;28;20104;-70
2021/06/02 00:29:05;;;;;;;3.88;2.85;;;15.20;71.50;;;;;;5034216;28;20539;-70
2021/06/02 00:31:32;;;;;;;3.90;2.47;;;15.20;71.70;;;;;;5034061;28;20068;-70
2021/06/02 00:34:01;;;;;;;4.10;2.15;;;15.10;72.20;;;;;;5034250;28;20041;-70
2021/06/02 00:36:29;;;;;;;3.08;2.60;;;15.00;73.10;;;;;;5034122;28;20125;-70
2021/06/02 00:38:55;;;;;;;4.07;2.70;;;15.10;73.30;;;;;;5033956;28;20048;-71
2021/06/02 00:41:20;;;;;;;3.15;2.85;;;15.00;73.50;;;;;;5032598;28;20124;-70
2021/06/02 00:43:47;;;;;;;4.28;3.25;;;15.10;73.90;;;;;;5033658;28;20037;-70
2021/06/02 00:46:22;;;;;;;4.95;3.30;;;15.00;74.00;;;;;;5033803;28;20049;-70
2021/06/02 00:48:48;;;;;;;4.38;3.03;;;15.00;74.60;;;;;;5033343;28;20037;-70
2021/06/02 00:51:17;;;;;;;9.68;3.10;;;15.00;74.80;;;;;;5033563;28;20103;-70
2021/06/02 00:53:43;;;;;;;4.88;3.30;;;15.00;75.00;;;;;;5034432;28;20041;-70
2021/06/02 00:56:12;;;;;;;3.85;3.38;;;15.00;75.00;;;;;;5032294;28;20439;-70
2021/06/02 00:58:46;;;;;;;5.10;3.33;;;15.00;75.10;;;;;;5033836;28;20075;-70
2021/06/02 01:01:13;;;;;;;6.22;3.20;;;15.00;75.30;;;;;;5034118;28;20462;-70
2021/06/02 01:03:39;;;;;;;3.17;2.80;;;15.00;75.90;;;;;;5034064;28;20033;-70
2021/06/02 01:06:06;;;;;;;8.73;4.05;;;14.90;76.40;;;;;;5033311;28;20168;-70
2021/06/02 01:08:34;;;;;;;4.88;3.67;;;14.80;76.80;;;;;;5033033;28;20038;-70
2021/06/02 01:11:01;;;;;;;9.52;5.05;;;14.80;77.60;;;;;;5033498;28;20041;-71
2021/06/02 01:13:29;;;;;;;8.68;4.93;;;14.80;77.60;;;;;;5033294;28;20129;-71
2021/06/02 01:15:55;;;;;;;10.27;5.15;;;14.60;78.00;;;;;;5033279;28;20042;-71
2021/06/02 01:18:22;;;;;;;9.68;4.82;;;14.70;78.50;;;;;;5033212;28;20033;-70
2021/06/02 01:20:48;;;;;;;8.32;4.85;;;14.60;79.00;;;;;;5033048;28;20469;-70
2021/06/02 01:23:16;;;;;;;8.20;4.55;;;14.60;79.10;;;;;;5033366;28;20034;-70
2021/06/02 01:25:43;;;;;;;8.10;4.60;;;14.70;79.00;;;;;;5033205;28;20489;-71
2021/06/02 01:28:10;;;;;;;5.90;4.18;;;14.70;78.90;;;;;;5033639;28;20045;-70
2021/06/02 01:30:36;;;;;;;8.18;5.50;;;14.80;78.90;;;;;;5032671;28;20042;-70
2021/06/02 01:33:17;;;;;;;6.03;3.95;;;14.70;78.80;;;;;;5033765;28;20049;-71
2021/06/02 01:35:57;;;;;;;6.28;4.03;;;14.60;79.10;;;;;;5033232;28;20037;-70
2021/06/02 01:38:42;;;;;;;6.68;3.90;;;14.50;79.30;;;;;;5033053;28;20095;-71
2021/06/02 01:41:07;;;;;;;8.10;4.57;;;14.40;79.80;;;;;;5032985;28;20046;-71
2021/06/02 01:43:58;;;;;;;6.57;4.40;;;14.30;80.10;;;;;;5033181;28;20042;-71
2021/06/02 01:46:42;;;;;;;7.30;4.68;;;14.30;80.90;;;;;;5033050;28;20041;-71
2021/06/02 01:49:45;;;;;;;8.05;4.60;;;14.20;81.20;;;;;;5032689;28;20042;-70
2021/06/02 01:52:41;;;;;;;9.48;5.43;;;14.30;80.90;;;;;;5032816;28;20041;-70
2021/06/02 01:55:34;;;;;;;9.57;6.35;;;14.20;81.20;;;;;;5031933;28;20036;-70
2021/06/02 01:58:12;;;;;;;9.85;6.10;;;14.30;81.50;;;;;;5033647;28;20430;-70
2021/06/02 02:00:52;;;;;;;11.55;7.25;;;14.20;81.50;;;;;;5031406;28;20048;-70
2021/06/02 02:03:42;;;;;;;11.63;6.85;;;14.30;81.40;;;;;;5032135;28;20424;-70
2021/06/02 02:06:29;;;;;;;12.45;7.10;;;14.40;81.40;;;;;;5031761;28;20041;-70
2021/06/02 02:09:29;;;;;;;10.75;6.40;;;14.40;81.30;;;;;;5032586;28;20041;-71
2021/06/02 02:12:28;;;;;;;11.10;7.30;;;14.40;81.80;;;;;;5032680;28;20042;-71
2021/06/02 02:15:18;;;;;;;13.13;6.88;;;14.40;82.10;;;;;;5031778;28;20044;-70
2021/06/02 02:17:55;;;;;;;11.30;6.88;;;14.40;82.30;;;;;;5033899;28;20116;-71
2021/06/02 02:20:42;;;;;;;12.18;7.22;;;14.50;82.60;;;;;;5035412;28;20041;-71
2021/06/02 02:23:36;;;;;;;10.30;6.70;;;14.50;82.40;;;;;;5036260;28;20128;-71
2021/06/02 02:26:13;;;;;;;10.27;6.53;;;14.50;82.90;;;;;;5036236;28;20044;-71
2021/06/02 02:28:57;;;;;;;8.55;5.72;;;14.40;83.90;;;;;;5036370;28;20045;-71
2021/06/02 02:31:43;;;;;;;9.52;5.57;;;14.50;83.30;;;;;;5035968;28;20065;-71
2021/06/02 02:34:28;;;;;;;8.20;5.40;;;14.50;83.30;;;;;;5036305;28;20440;-71
2021/06/02 02:37:06;;;;;;;7.65;5.22;;;14.50;83.90;;;;;;5036348;28;20037;-71
2021/06/02 02:40:02;;;;;;;8.45;6.20;;;14.40;84.60;;;;;;5036028;28;20041;-70
2021/06/02 02:43:05;;;;;;;9.45;5.40;;;14.30;85.10;;;;;;5035981;28;20072;-70
2021/06/02 02:45:36;;;;;;;13.60;8.35;;;14.40;85.10;;;;;;5035842;28;20045;-71
2021/06/02 02:48:22;;;;;;;;;;;14.50;84.80;;;;;;5036150;28;20121;-71
2021/06/02 02:50:58;;;;;;;14.27;9.07;;;14.40;85.40;;;;;;5035336;28;20280;-70
2021/06/02 02:53:52;;;;;;;17.55;10.45;;;14.30;85.90;;;;;;5035725;28;20375;-70
2021/06/02 02:56:56;;;;;;;17.45;9.15;;;14.30;87.10;;;;;;5035644;28;20069;-71
2021/06/02 02:59:43;;;;;;;15.43;9.10;;;14.30;87.30;;;;;;5034057;28;20057;-71
2021/06/02 03:02:20;;;;;;;15.23;9.18;;;14.40;87.40;;;;;;5035715;28;20041;-70
2021/06/02 03:04:54;;;;;;;13.20;9.45;;;14.40;87.50;;;;;;5035573;28;20495;-70
2021/06/02 03:07:22;;;;;;;14.93;8.27;;;14.40;87.60;;;;;;5035491;28;20033;-71
2021/06/02 03:10:08;;;;;;;12.27;8.15;;;14.40;88.10;;;;;;5035013;28;20441;-71
2021/06/02 03:13:06;;;;;;;9.00;6.72;;;14.50;88.10;;;;;;5035553;28;20405;-71
2021/06/02 03:15:37;;;;;;;8.70;6.68;;;14.40;88.90;;;;;;5035826;28;20044;-71
2021/06/02 03:18:27;;;;;;;15.05;8.35;;;14.50;89.10;;;;;;5035570;28;20052;-70
2021/06/02 03:21:36;;;;;;;9.80;7.57;;;14.60;88.80;;;;;;5035348;28;20037;-70
2021/06/02 03:24:21;;;;;;;10.70;7.72;;;14.60;89.70;;;;;;5035259;28;20051;-71
2021/06/02 03:27:00;;;;;;;10.80;8.05;;;14.60;89.70;;;;;;5035073;28;20044;-71
2021/06/02 03:30:04;;;;;;;12.63;8.15;;;14.60;90.00;;;;;;5035012;28;20045;-70
2021/06/02 03:33:02;;;;;;;10.43;8.23;;;14.60;90.20;;;;;;5034936;28;20045;-70
2021/06/02 03:35:52;;;;;;;11.20;8.82;;;14.50;90.40;;;;;;5035604;28;20038;-70
2021/06/02 03:38:40;;;;;;;;;;;14.50;90.70;;;;;;5035442;28;20045;-70
2021/06/02 03:41:14;;;;;;;12.05;8.32;;;14.40;90.80;;;;;;5034760;28;19917;-70
2021/06/02 03:43:47;;;;;;;13.13;9.20;;;14.50;90.90;;;;;;5035115;28;20477;-70
2021/06/02 03:46:22;;;;;;;;;;;14.60;91.00;;;;;;5033878;28;20397;-70
2021/06/02 03:48:54;;;;;;;14.45;8.50;;;14.50;91.40;;;;;;5034730;28;19947;-71
2021/06/02 03:51:31;;;;;;;15.00;9.13;;;14.60;91.10;;;;;;5034740;28;20041;-70
2021/06/02 03:54:11;;;;;;;13.05;9.07;;;14.60;91.50;;;;;;5035107;28;20073;-70
2021/06/02 03:57:06;;;;;;;14.27;9.05;;;14.60;91.60;;;;;;5034497;28;20486;-70
2021/06/02 03:59:31;;;;;;;12.82;8.48;;;14.70;91.40;;;;;;5030896;28;20529;-70
2021/06/02 04:02:08;;;;;;;11.85;8.15;;;14.80;91.30;;;;;;5034555;28;20033;-70
2021/06/02 04:04:49;;;;;;;12.10;9.32;;;14.80;91.30;;;;;;5034379;28;20048;-70
2021/06/02 04:07:40;;;;;;;14.35;8.52;;;14.80;91.40;;;;;;5034355;28;20112;-70
2021/06/02 04:10:13;;;;;;;13.10;8.43;;;14.80;91.40;;;;;;5034003;28;20041;-70
2021/06/02 04:15:37;;;;;;;12.50;9.05;;;14.90;91.30;;;;;;5034080;28;20043;-70
2021/06/02 04:18:06;;;;;;;12.82;8.23;;;14.80;91.50;;;;;;5034122;28;20405;-70
2021/06/02 04:20:32;;;;;;;12.38;9.07;;;14.90;91.30;;;;;;5033710;28;20079;-70
2021/06/02 04:23:01;;;;;;;14.40;9.65;;;14.90;91.40;;;;;;5034099;28;20073;-70
2021/06/02 04:25:28;;;;;;;14.93;9.32;;;14.80;91.50;;;;;;5034060;28;20037;-70
2021/06/02 04:27:55;;;;;;;12.73;8.50;;;14.90;91.20;;;;;;5034028;28;20037;-70
2021/06/02 04:30:25;;;;;;;12.75;9.40;;;15.10;90.90;;;;;;5033573;28;20052;-70
2021/06/02 04:32:57;;;;;;;15.30;8.52;;;15.10;90.70;;;;;;5034055;28;20041;-70
2021/06/02 04:35:24;;;;;;;12.60;8.30;;;15.10;91.10;;;;;;5034318;28;20116;-70
2021/06/02 04:37:52;;;;;;;12.57;8.23;;;15.10;90.50;;;;;;5033874;28;20512;-70
2021/06/02 04:40:17;;;;;;;14.88;8.60;;;15.10;90.60;;;;;;5033330;28;20037;-70
2021/06/02 04:42:43;;;;;;;12.20;8.35;;;15.10;90.50;;;;;;5034347;28;20040;-70
2021/06/02 04:45:18;;;;;;;11.52;7.93;;;15.20;90.40;;;;;;5033774;28;20119;-70
2021/06/02 04:47:45;;;;;;;14.63;8.40;;;15.40;90.00;;;;;;5032328;28;20033;-70
2021/06/02 04:50:22;;;;;;;9.95;7.60;;;15.50;89.70;;;;;;5033228;28;20034;-70
2021/06/02 04:53:21;;;;;;;11.63;7.95;;;15.70;88.80;;;;;;5034170;28;20037;-70
2021/06/02 04:56:02;;;;;;;11.98;7.80;;;15.70;88.80;;;;;;5032588;28;20393;-70
2021/06/02 04:58:39;;;;;;;12.15;8.38;;;15.90;87.70;;;;;;5033593;28;20046;-71
2021/06/02 05:04:56;;;;;;;10.23;7.60;;;16.20;86.40;;;;;;5617086;22;20057;-73
2021/06/02 05:08:28;;;;;;;9.95;7.30;;;16.30;85.20;;;;;;5017685;28;20041;-72
2021/06/02 05:11:22;;;;;;;10.80;7.35;;;16.50;85.10;;;;;;5032762;28;20038;-72
2021/06/02 05:14:27;;;;;;;11.15;7.43;;;16.70;83.40;;;;;;5034048;28;20501;-72
2021/06/02 05:17:17;;;;;;;11.27;8.40;;;16.80;82.70;;;;;;5025420;28;20486;-72
2021/06/02 05:20:37;;;;;;;11.68;8.48;;;16.80;82.70;;;;;;5033052;28;20116;-72
2021/06/02 05:23:08;;;;;;;10.30;7.38;;;17.00;81.80;;;;;;5033240;28;20099;-72
2021/06/02 05:25:55;;;;;;;12.07;8.07;;;17.20;81.10;;;;;;5033894;28;20037;-72
2021/06/02 05:28:39;;;;;;;11.73;7.72;;;17.20;80.60;;;;;;5033415;28;20055;-72
2021/06/02 05:31:26;;;;;;;10.10;7.55;;;17.70;79.90;;;;;;5032034;28;20064;-72
2021/06/02 05:34:14;;;;;;;11.82;7.28;;;17.80;78.40;;;;;;5033275;28;20037;-72
2021/06/02 05:37:11;;;;;;;11.65;8.07;;;18.00;77.80;;;;;;5033841;28;20071;-72
2021/06/02 05:40:13;;;;;;;11.07;7.60;;;18.10;77.80;;;;;;5033278;28;20382;-72
2021/06/02 05:43:00;;;;;;;14.82;7.95;;;17.90;78.80;;;;;;5033099;28;20104;-72
2021/06/02 05:45:44;;;;;;;11.30;8.02;;;18.00;79.00;;;;;;5033556;28;20041;-72
2021/06/02 05:48:34;;;;;;;14.73;8.23;;;18.10;78.10;;;;;;5033584;28;20045;-72
2021/06/02 05:51:17;;;;;;;13.27;8.43;;;17.90;78.90;;;;;;5033031;28;20041;-72
2021/06/02 05:54:02;;;;;;;12.10;8.32;;;18.00;79.30;;;;;;5035780;28;20049;-72
2021/06/02 05:56:40;;;;;;;16.38;9.02;;;18.00;79.00;;;;;;5037181;28;20042;-72
2021/06/02 05:59:24;;;;;;;11.77;8.35;;;18.10;78.90;;;;;;5036522;28;20073;-72
2021/06/02 06:02:11;;;;;;;13.43;8.40;;;18.30;79.20;;;;;;5036577;28;20048;-72
2021/06/02 06:05:04;;;;;;;15.45;8.27;;;18.60;78.30;;;;;;5036930;28;20474;-72
2021/06/02 06:07:59;;;;;;;14.30;8.88;;;18.80;78.30;;;;;;5036899;28;20091;-72
2021/06/02 06:10:49;;;;;;;11.35;8.02;;;18.90;77.10;;;;;;5036314;28;20037;-72
2021/06/02 06:13:52;;;;;;;12.20;8.38;;;19.20;76.40;;;;;;5035420;28;20068;-72
2021/06/02 06:16:47;;;;;;;10.05;7.57;;;19.30;76.00;;;;;;5037037;28;20068;-72
2021/06/02 06:19:33;;;;;;;11.38;8.45;;;19.40;76.00;;;;;;5036470;28;20106;-72
2021/06/02 06:22:28;;;;;;;11.35;8.40;;;19.50;76.40;;;;;;5036921;28;20073;-72
2021/06/02 06:25:08;;;;;;;12.40;8.38;;;19.60;75.80;;;;;;5036277;28;20064;-72
2021/06/02 06:27:46;;;;;;;11.75;7.95;;;19.90;75.70;;;;;;5035894;28;20444;-72
2021/06/02 06:30:18;;;;;;;13.23;8.05;;;20.30;73.60;;;;;;5035548;28;20034;-72
2021/06/02 06:32:48;;;;;;;13.73;8.52;;;20.10;73.80;;;;;;5036058;28;20069;-72
2021/06/02 06:35:15;;;;;;;14.32;8.80;;;19.90;73.90;;;;;;5036560;28;20109;-72
2021/06/02 06:37:52;;;;;;;11.60;7.50;;;20.00;72.90;;;;;;5036057;28;20470;-72
2021/06/02 06:40:30;;;;;;;10.48;7.95;;;20.20;73.20;;;;;;5035586;28;20060;-72
2021/06/02 06:42:58;;;;;;;16.38;8.32;;;20.40;73.60;;;;;;5036483;28;20061;-71
2021/06/02 06:45:34;;;;;;;12.98;7.25;;;20.50;72.90;;;;;;5035833;28;20489;-72
2021/06/02 06:48:09;;;;;;;12.32;7.18;;;20.70;72.60;;;;;;5035275;28;20042;-71
2021/06/02 06:50:35;;;;;;;9.43;7.28;;;21.00;72.00;;;;;;5035344;28;20120;-71
2021/06/02 06:53:07;;;;;;;12.88;7.40;;;21.10;69.90;;;;;;5036147;28;20120;-71
2021/06/02 06:55:34;;;;;;;15.90;7.15;;;21.20;69.60;;;;;;5035846;28;20038;-71
2021/06/02 06:58:01;;;;;;;10.50;6.40;;;21.00;70.00;;;;;;5036262;28;20069;-71
2021/06/02 07:00:30;;;;;;;12.02;7.07;;;21.20;70.00;;;;;;5035559;28;20033;-72
2021/06/02 07:02:55;;;;;;;13.95;7.22;;;21.20;68.50;;;;;;5035702;28;20041;-72
2021/06/02 07:05:23;;;;;;;10.73;6.68;;;21.40;69.20;;;;;;5035513;28;20508;-71
2021/06/02 07:07:50;;;;;;;12.90;6.97;;;21.50;67.80;;;;;;5035925;28;20037;-72
2021/06/02 07:10:22;;;;;;;9.63;6.87;;;21.60;67.50;;;;;;5035041;28;20042;-72
2021/06/02 07:12:49;;;;;;;11.52;7.00;;;21.70;67.80;;;;;;5035890;28;20042;-72
2021/06/02 07:15:17;;;;;;;9.73;5.70;;;21.80;66.00;;;;;;5035559;28;20041;-72
2021/06/02 07:17:46;;;;;;;7.93;5.75;;;21.80;65.60;;;;;;5035331;28;20044;-72
2021/06/02 07:20:18;;;;;;;7.65;6.45;;;22.10;66.30;;;;;;5034912;28;20042;-72
2021/06/02 07:22:46;;;;;;;8.32;5.88;;;22.10;64.60;;;;;;5035462;28;20128;-71
2021/06/02 07:25:21;;;;;;;9.05;6.00;;;22.30;64.70;;;;;;5035081;28;20098;-72
2021/06/02 07:27:48;;;;;;;7.95;5.95;;;22.40;64.20;;;;;;5035711;28;20362;-72
2021/06/02 07:30:15;;;;;;;12.93;6.88;;;22.40;63.80;;;;;;5034617;28;20466;-71
2021/06/02 07:32:41;;;;;;;8.90;6.57;;;22.20;63.10;;;;;;5035227;28;20037;-71
2021/06/02 07:35:09;;;;;;;8.70;5.57;;;21.90;64.00;;;;;;5035467;28;20046;-72
2021/06/02 07:37:35;;;;;;;10.25;5.47;;;21.90;65.20;;;;;;5034866;28;20056;-71
2021/06/02 07:40:01;;;;;;;6.07;5.28;;;21.90;63.70;;;;;;5034646;28;20041;-71
2021/06/02 07:42:27;;;;;;;11.57;7.20;;;22.30;64.40;;;;;;5033637;28;20037;-71
2021/06/02 07:44:53;;;;;;;8.45;6.35;;;22.10;65.90;;;;;;5035064;28;20034;-71
2021/06/02 07:47:19;;;;;;;8.73;5.78;;;21.80;65.80;;;;;;5034816;28;20087;-71
2021/06/02 07:49:45;;;;;;;8.18;5.95;;;21.90;66.20;;;;;;5034129;28;20041;-72
2021/06/02 07:52:11;;;;;;;8.40;5.07;;;22.00;65.00;;;;;;5035173;28;20492;-72
2021/06/02 07:54:37;;;;;;;7.13;5.43;;;21.90;63.70;;;;;;5034548;28;20056;-72
2021/06/02 07:57:03;;;;;;;6.90;4.85;;;21.80;65.50;;;;;;5033372;28;20478;-72
2021/06/02 07:59:29;;;;;;;7.53;5.63;;;21.90;63.90;;;;;;5034367;28;20065;-72
2021/06/02 08:01:54;;;;;;;10.30;5.47;;;22.00;66.10;;;;;;5034550;28;20060;-72
2021/06/02 08:04:20;;;;;;;9.60;5.53;;;22.30;65.40;;;;;;5034385;28;20037;-72
2021/06/02 08:06:46;;;;;;;8.20;5.15;;;22.60;64.10;;;;;;5033033;28;20045;-71
2021/06/02 08:09:17;;;;;;;9.25;5.90;;;22.80;65.00;;;;;;5033814;28;20124;-72
2021/06/02 08:11:44;;;;;;;9.55;5.25;;;22.80;63.50;;;;;;5032184;28;20124;-72
2021/06/02 08:14:10;;;;;;;9.48;5.78;;;22.70;63.40;;;;;;5032628;28;20040;-72
2021/06/02 08:16:35;;;;;;;7.07;4.72;;;22.80;62.10;;;;;;5032044;28;20038;-72
2021/06/02 08:19:01;;;;;;;7.47;4.97;;;22.80;61.80;;;;;;5032515;28;20087;-72
2021/06/02 08:21:27;;;;;;;10.60;5.20;;;22.70;63.00;;;;;;5032560;28;20041;-72
2021/06/02 08:23:52;;;;;;;8.63;5.32;;;22.60;62.20;;;;;;5032654;28;20033;-72
2021/06/02 08:26:18;;;;;;;8.82;5.28;;;22.40;63.20;;;;;;5032751;28;20481;-72
2021/06/02 08:28:44;;;;;;;7.22;4.97;;;21.70;64.00;;;;;;5033871;28;20065;-72
2021/06/02 08:31:09;;;;;;;10.18;5.22;;;21.60;65.10;;;;;;5034220;28;20076;-72
2021/06/02 08:33:35;;;;;;;10.60;5.57;;;21.90;65.00;;;;;;5033895;28;20069;-72
2021/06/02 08:36:01;;;;;;;7.95;5.47;;;21.70;64.80;;;;;;5034019;28;20041;-72
2021/06/02 08:38:27;;;;;;;6.50;4.40;;;21.50;66.40;;;;;;5033851;28;20041;-72
2021/06/02 08:40:53;;;;;;;9.48;5.40;;;21.40;65.80;;;;;;5032487;28;20390;-72
2021/06/02 08:43:22;;;;;;;8.32;5.15;;;21.40;65.50;;;;;;5034184;28;20466;-72
2021/06/02 08:45:48;;;;;;;12.40;6.07;;;21.40;65.60;;;;;;5033644;28;20034;-72
2021/06/02 08:48:14;;;;;;;11.00;7.00;;;21.20;64.40;;;;;;5034255;28;20037;-72
2021/06/02 08:50:40;;;;;;;8.50;6.22;;;21.70;64.70;;;;;;5033073;28;20049;-71
2021/06/02 08:53:07;;;;;;;7.80;5.95;;;22.00;65.20;;;;;;5033707;28;20048;-72
2021/06/02 08:55:33;;;;;;;8.02;5.72;;;22.30;65.10;;;;;;5033547;28;20045;-72
2021/06/02 08:57:59;;;;;;;6.95;4.50;;;22.70;63.70;;;;;;5033815;28;20522;-72
2021/06/02 09:00:26;;;;;;;7.93;4.55;;;23.00;63.80;;;;;;5033041;28;20037;-72
2021/06/02 09:02:56;;;;;;;9.80;5.70;;;23.20;63.20;;;;;;5033516;28;20033;-72
2021/06/02 09:05:24;;;;;;;9.80;6.13;;;23.20;63.10;;;;;;5034021;28;20478;-71
2021/06/02 09:07:52;;;;;;;7.65;4.20;;;23.00;61.90;;;;;;5032609;28;20040;-71
2021/06/02 09:10:19;;;;;;;6.55;4.30;;;23.10;60.80;;;;;;5032756;28;20076;-72
2021/06/02 09:12:45;;;;;;;9.00;4.13;;;23.00;58.30;;;;;;5033401;28;20041;-72
2021/06/02 09:15:16;;;;;;;6.20;4.35;;;23.10;58.70;;;;;;5033848;28;20096;-72
2021/06/02 09:17:58;;;;;;;6.40;4.30;;;23.30;58.10;;;;;;5032969;28;20091;-72
2021/06/02 09:20:41;;;;;;;6.90;4.63;;;23.30;57.50;;;;;;5032832;28;20034;-72
2021/06/02 09:23:26;;;;;;;;;;;23.20;57.60;;;;;;5033773;28;20037;-72
2021/06/02 09:25:57;;;;;;;6.82;4.75;;;23.20;59.30;;;;;;5033280;28;20013;-72
2021/06/02 09:28:23;;;;;;;7.70;5.68;;;23.20;59.00;;;;;;5037080;28;20474;-72
2021/06/02 09:30:48;;;;;;;10.70;5.82;;;23.20;58.60;;;;;;5036816;28;20041;-72
2021/06/02 09:33:14;;;;;;;8.57;6.28;;;23.30;59.20;;;;;;5037215;28;20401;-72
2021/06/02 09:35:42;;;;;;;7.70;5.10;;;23.20;60.30;;;;;;5036077;28;20545;-72
2021/06/02 09:38:25;;;;;;;6.53;5.03;;;23.50;60.90;;;;;;5036447;28;20041;-72
2021/06/02 09:40:56;;;;;;;6.28;4.95;;;23.60;60.40;;;;;;5035580;28;20465;-71
2021/06/02 09:43:35;;;;;;;10.23;4.90;;;23.40;61.60;;;;;;5037019;28;20067;-71
2021/06/02 09:46:05;;;;;;;8.45;4.28;;;23.40;60.80;;;;;;5037444;28;20038;-72
2021/06/02 09:48:47;;;;;;;5.18;4.10;;;23.40;59.20;;;;;;5036720;28;20040;-72
2021/06/02 09:51:35;;;;;;;6.22;3.60;;;23.20;60.00;;;;;;5037674;28;20047;-72
2021/06/02 09:54:03;;;;;;;5.38;3.80;;;23.20;59.00;;;;;;5037380;28;20041;-72
2021/06/02 09:56:37;;;;;;;6.57;3.30;;;23.20;57.50;;;;;;5037463;28;20116;-72
2021/06/02 09:59:08;;;;;;;7.63;3.80;;;23.20;57.50;;;;;;5036472;28;20448;-72
2021/06/02 10:01:59;;;;;;;5.03;3.42;;;23.40;57.30;;;;;;5036656;28;20045;-71
2021/06/02 10:04:38;;;;;;;4.55;3.30;;;23.40;57.80;;;;;;5035405;28;20040;-71
2021/06/02 10:07:16;;;;;;;5.88;4.13;;;23.40;56.70;;;;;;5037246;28;20043;-71
2021/06/02 10:09:43;;;;;;;8.00;4.22;;;23.40;58.10;;;;;;5036397;28;20120;-71
2021/06/02 10:12:10;;;;;;;7.00;3.78;;;23.40;59.60;;;;;;5036372;28;20548;-71
2021/06/02 10:15:00;;;;;;;8.40;3.17;;;23.40;58.20;;;;;;5036462;28;20413;-72
2021/06/02 10:17:34;;;;;;;7.25;3.28;;;23.50;56.80;;;;;;5030143;28;20391;-72
2021/06/02 10:20:09;;;;;;;7.00;3.58;;;23.50;58.20;;;;;;5035994;28;20041;-73
2021/06/02 10:22:35;;;;;;;6.45;4.10;;;23.40;57.90;;;;;;5036310;28;20037;-72
2021/06/02 10:25:05;;;;;;;5.63;3.58;;;23.40;59.00;;;;;;5036460;28;20045;-72
2021/06/02 10:27:31;;;;;;;5.03;3.38;;;23.40;58.50;;;;;;5036627;28;20048;-72
2021/06/02 10:29:57;;;;;;;5.88;3.30;;;23.50;60.00;;;;;;5035860;28;20116;-72
2021/06/02 10:32:24;;;;;;;9.25;3.90;;;23.50;58.60;;;;;;5036115;28;20045;-72
2021/06/02 10:34:52;;;;;;;6.10;3.90;;;23.50;56.90;;;;;;5035328;28;20485;-72
2021/06/02 10:37:19;;;;;;;5.00;3.50;;;23.30;58.10;;;;;;5036001;28;20406;-72
2021/06/02 10:39:52;;;;;;;6.10;3.38;;;23.40;58.20;;;;;;5034851;28;20037;-72
2021/06/02 10:42:38;;;;;;;5.40;3.53;;;23.40;57.50;;;;;;5036066;28;20041;-72
2021/06/02 10:45:26;;;;;;;17.15;4.78;;;23.30;57.70;;;;;;5036654;28;20038;-72
2021/06/02 10:47:54;;;;;;;9.50;4.18;;;23.20;58.40;;;;;;5036213;28;20041;-71
2021/06/02 10:50:44;;;;;;;8.65;4.00;;;22.90;59.60;;;;;;5034186;28;20042;-71
2021/06/02 10:53:19;;;;;;;5.93;3.75;;;22.80;61.30;;;;;;5036218;28;20041;-71
2021/06/02 10:55:47;;;;;;;6.82;3.38;;;23.00;60.70;;;;;;5035242;28;20033;-71
2021/06/02 10:58:16;;;;;;;8.98;3.95;;;23.10;60.80;;;;;;5036022;28;20045;-72
2021/06/02 11:00:42;;;;;;;6.32;3.72;;;23.00;61.10;;;;;;5035133;28;20037;-72
2021/06/02 11:03:21;;;;;;;4.88;3.75;;;23.20;60.80;;;;;;5035948;28;20116;-72
2021/06/02 11:06:15;;;;;;;5.90;3.80;;;23.30;60.60;;;;;;5034718;28;20037;-72
2021/06/02 11:09:01;;;;;;;9.98;4.00;;;23.30;60.60;;;;;;5035055;28;20465;-72
2021/06/02 11:11:29;;;;;;;5.07;3.53;;;23.50;60.20;;;;;;5031544;28;20053;-72
2021/06/02 11:14:16;;;;;;;5.65;3.55;;;23.60;60.40;;;;;;5035489;28;20076;-72
2021/06/02 11:17:01;;;;;;;8.13;4.28;;;23.40;61.10;;;;;;5035411;28;20049;-72
2021/06/02 11:19:42;;;;;;;7.00;3.72;;;23.40;60.30;;;;;;5034974;28;20041;-71
2021/06/02 11:22:12;;;;;;;9.90;4.60;;;23.40;61.20;;;;;;5033509;28;20076;-72
2021/06/02 11:24:42;;;;;;;8.32;3.53;;;23.50;59.70;;;;;;5033136;28;20539;-72
2021/06/02 11:27:10;;;;;;;4.95;3.42;;;23.40;58.60;;;;;;5032944;28;20038;-72
2021/06/02 11:29:56;;;;;;;5.88;3.67;;;23.30;59.40;;;;;;5032709;28;20452;-72
2021/06/02 11:32:26;;;;;;;7.60;4.20;;;23.10;59.80;;;;;;5032786;28;20048;-72
2021/06/02 11:35:06;;;;;;;4.60;3.45;;;23.20;59.60;;;;;;5033686;28;20075;-72
2021/06/02 11:37:35;;;;;;;5.20;3.45;;;23.20;59.50;;;;;;5034773;28;20045;-72
2021/06/02 11:40:14;;;;;;;5.85;3.70;;;23.20;59.70;;;;;;5034444;28;20045;-72
2021/06/02 11:42:46;;;;;;;7.53;3.70;;;23.20;60.00;;;;;;5035508;28;20041;-72
2021/06/02 11:45:13;;;;;;;6.32;3.85;;;23.20;59.80;;;;;;5034779;28;20064;-72
2021/06/02 11:47:44;;;;;;;20.10;5.93;;;23.20;59.30;;;;;;5034751;28;20473;-72
2021/06/02 11:50:14;;;;;;;11.10;4.95;;;23.30;59.40;;;;;;5033433;28;20068;-72
2021/06/02 11:52:40;;;;;;;6.55;3.80;;;23.40;58.40;;;;;;5034709;28;20038;-72
2021/06/02 11:55:09;;;;;;;5.22;3.42;;;23.40;57.90;;;;;;5034582;28;20037;-72
2021/06/02 11:57:41;;;;;;;7.03;3.45;;;23.60;58.10;;;;;;5034293;28;20037;-71
2021/06/02 12:00:16;;;;;;;6.00;3.80;;;23.60;58.60;;;;;;5034100;28;20544;-71
2021/06/02 12:02:42;;;;;;;5.82;3.60;;;23.80;58.10;;;;;;5034306;28;20079;-72
2021/06/02 12:05:23;;;;;;;5.38;3.40;;;23.90;58.90;;;;;;5034325;28;20038;-71
2021/06/02 12:07:53;;;;;;;6.70;3.92;;;24.00;58.00;;;;;;5034795;28;20043;-71
2021/06/02 12:10:19;;;;;;;5.97;3.60;;;24.10;58.70;;;;;;5034336;28;20069;-71
2021/06/02 12:12:46;;;;;;;5.75;3.47;;;24.10;58.40;;;;;;5034149;28;20037;-71
2021/06/02 12:15:13;;;;;;;6.78;3.42;;;24.10;58.40;;;;;;5034060;28;20378;-71
2021/06/02 12:17:39;;;;;;;6.22;3.33;;;24.10;58.00;;;;;;5034311;28;20120;-72
2021/06/02 12:20:08;;;;;;;8.65;4.03;;;24.00;57.20;;;;;;5033908;28;20120;-71
2021/06/02 12:22:35;;;;;;;6.85;3.92;;;23.90;57.40;;;;;;5033978;28;20508;-72
2021/06/02 12:25:18;;;;;;;7.15;3.60;;;23.80;57.50;;;;;;5034144;28;20121;-72
2021/06/02 12:27:53;;;;;;;6.10;4.07;;;23.70;57.60;;;;;;5033835;28;20043;-72
2021/06/02 12:30:20;;;;;;;6.05;3.28;;;23.90;57.00;;;;;;5033574;28;20499;-72
2021/06/02 12:32:54;;;;;;;5.38;3.63;;;24.00;56.80;;;;;;5034394;28;20067;-72
2021/06/02 12:35:32;;;;;;;7.00;3.53;;;23.80;57.20;;;;;;5034091;28;20037;-72
2021/06/02 12:38:05;;;;;;;5.15;3.20;;;23.90;58.20;;;;;;5034078;28;20046;-72
2021/06/02 12:40:36;;;;;;;8.20;3.17;;;23.90;57.50;;;;;;5033726;28;20045;-71
2021/06/02 12:43:46;;;;;;;7.80;3.55;;;24.00;58.10;;;;;;5034396;28;20037;-72
2021/06/02 12:46:14;;;;;;;8.90;4.35;;;23.90;58.10;;;;;;5026178;28;20053;-72
2021/06/02 12:48:41;;;;;;;9.07;3.47;;;23.90;57.20;;;;;;5033294;28;20529;-72
2021/06/02 12:51:11;;;;;;;7.60;4.35;;;23.90;57.90;;;;;;5033503;28;20087;-72
2021/06/02 12:53:42;;;;;;;7.43;3.88;;;23.90;56.50;;;;;;5034367;28;20045;-72
2021/06/02 12:56:09;;;;;;;9.68;3.83;;;24.00;56.30;;;;;;5034206;28;20033;-71
2021/06/02 12:58:36;;;;;;;8.68;3.78;;;23.90;57.00;;;;;;5033810;28;20037;-72
2021/06/02 13:01:07;;;;;;;6.93;4.40;;;23.90;57.40;;;;;;5033356;28;20064;-71
2021/06/02 13:03:34;;;;;;;6.30;3.90;;;23.70;58.30;;;;;;5033710;28;20041;-71
2021/06/02 13:06:00;;;;;;;5.72;3.63;;;23.80;58.00;;;;;;5033406;28;20367;-71
2021/06/02 13:08:37;;;;;;;7.82;4.00;;;24.00;58.30;;;;;;5033950;28;20462;-71
2021/06/02 13:11:08;;;;;;;7.90;4.15;;;24.10;57.10;;;;;;5033928;28;20038;-71
2021/06/02 13:13:35;;;;;;;6.70;4.37;;;24.00;57.70;;;;;;5033510;28;20476;-71
2021/06/02 13:16:04;;;;;;;7.05;4.05;;;23.80;58.80;;;;;;5033615;28;20360;-71
2021/06/02 13:18:31;;;;;;;7.35;4.30;;;24.20;58.20;;;;;;5033300;28;20083;-72
2021/06/02 13:21:08;;;;;;;7.28;4.63;;;24.50;57.50;;;;;;5033083;28;20394;-71
2021/06/02 13:23:34;;;;;;;8.57;4.78;;;24.50;57.20;;;;;;5033630;28;20046;-71
2021/06/02 13:26:04;;;;;;;8.65;4.60;;;24.60;55.80;;;;;;5033200;28;20126;-71
2021/06/02 13:28:33;;;;;;;13.40;4.70;;;24.80;55.40;;;;;;5033509;28;20042;-72
2021/06/02 13:31:00;;;;;;;5.80;4.32;;;24.80;55.70;;;;;;5033307;28;20041;-71
2021/06/02 13:33:39;;;;;;;12.23;5.38;;;24.80;56.20;;;;;;5033803;28;20041;-71